EW8414 Weather Reports


Display with metric or nautical units.
time (UTC)temp
F
wind
direction
speed
MPH
gust
MPH
rain 1hr
in
rain 24hr
in
rain mn
in
humidity
%
barometer
mb
20180924051519 58 0.0 0.0 0.00 0.00 0.00 61 1019.4
20180924050521 59 0.0 0.0 0.00 0.00 0.00 57 1019.0
20180924045525 59 299 0.0 2.0 0.00 0.00 0.00 55 1018.9
20180924044527 59 307 0.0 2.0 0.00 0.00 0.00 55 1018.8
20180924043528 59 272 1.0 4.0 0.00 0.00 0.00 55 1018.7
20180924042520 60 239 0.0 2.0 0.00 0.00 0.00 56 1018.6
20180924041518 60 0.0 0.0 0.00 0.00 0.00 56 1018.5
20180924040521 61 274 0.0 4.0 0.00 0.00 0.00 55 1018.5
20180924035524 62 0.0 0.0 0.00 0.00 0.00 51 1018.2
20180924034527 62 295 2.0 7.0 0.00 0.00 0.00 49 1018.3
20180924033527 63 231 1.0 4.0 0.00 0.00 0.00 47 1017.9
20180924032525 63 212 1.0 4.0 0.00 0.00 0.00 46 1017.7
20180924031528 63 216 3.0 7.0 0.00 0.00 0.00 46 1017.7
20180924030531 63 212 4.0 9.0 0.00 0.00 0.00 45 1017.6
20180924025518 64 207 3.0 7.0 0.00 0.00 0.00 44 1017.6
20180924024520 64 202 4.0 9.0 0.00 0.00 0.00 43 1017.7
20180924023523 65 200 4.0 9.0 0.00 0.00 0.00 41 1017.7
20180924022526 65 196 1.0 7.0 0.00 0.00 0.00 39 1017.6
20180924021524 66 222 2.0 7.0 0.00 0.00 0.00 38 1017.6
20180924020522 66 211 2.0 9.0 0.00 0.00 0.00 36 1017.5
20180924015519 66 201 3.0 7.0 0.00 0.00 0.00 35 1017.7
20180924014521 67 201 3.0 9.0 0.00 0.00 0.00 32 1017.6
20180924013523 68 208 3.0 9.0 0.00 0.00 0.00 30 1017.5
20180924012526 68 200 3.0 7.0 0.00 0.00 0.00 29 1017.5
20180924011529 69 207 4.0 9.0 0.00 0.00 0.00 28 1017.4
20180924010516 70 196 2.0 4.0 0.00 0.00 0.00 28 1017.3
20180924005530 71 211 3.0 7.0 0.00 0.00 0.00 27 1017.5
20180924004530 72 202 3.0 9.0 0.00 0.00 0.00 26 1017.3
20180924003531 72 198 3.0 7.0 0.00 0.00 0.00 26 1017.2
20180924002529 72 202 2.0 7.0 0.00 0.00 0.00 26 1017.3
20180924001529 72 222 1.0 4.0 0.00 0.00 0.00 26 1017.3
20180924000516 72 210 3.0 9.0 0.00 0.00 0.00 25 1017.4
20180923235530 72 216 2.0 4.0 0.00 0.00 0.00 26 1017.3
20180923234530 72 209 3.0 9.0 0.00 0.00 0.00 25 1017.3
20180923233536 73 221 3.0 7.0 0.00 0.00 0.00 25 1017.3
20180923232529 73 205 2.0 4.0 0.00 0.00 0.00 25 1017.5
20180923231529 73 243 1.0 4.0 0.00 0.00 0.00 25 1017.6
20180923230515 72 264 1.0 4.0 0.00 0.00 0.00 27 1017.5
20180923225516 72 228 2.0 4.0 0.00 0.00 0.00 26 1017.7
20180923224519 72 252 2.0 9.0 0.00 0.00 0.00 24 1017.7
20180923223519 72 199 2.0 7.0 0.00 0.00 0.00 26 1017.6
20180923222522 72 218 3.0 9.0 0.00 0.00 0.00 26 1018.1
20180923221523 72 223 3.0 12.0 0.00 0.00 0.00 26 1018.0
20180923220526 71 281 1.0 4.0 0.00 0.00 0.00 25 1018.2
20180923215529 71 292 3.0 12.0 0.00 0.00 0.00 25 1018.2
20180923214516 71 226 3.0 7.0 0.00 0.00 0.00 25 1018.3
20180923213530 71 226 3.0 9.0 0.00 0.00 0.00 25 1018.5
20180923212528 70 212 2.0 4.0 0.00 0.00 0.00 26 1018.7
20180923211531 70 277 2.0 9.0 0.00 0.00 0.00 26 1018.7
20180923210517 69 218 3.0 7.0 0.00 0.00 0.00 26 1018.7
20180923205520 69 230 3.0 12.0 0.00 0.00 0.00 27 1018.8
20180923204518 69 252 1.0 7.0 0.00 0.00 0.00 29 1018.8
20180923203521 69 232 2.0 9.0 0.00 0.00 0.00 30 1018.9
20180923202524 69 236 3.0 7.0 0.00 0.00 0.00 30 1019.2
20180923201527 68 290 2.0 7.0 0.00 0.00 0.00 31 1019.1
20180923200531 68 210 2.0 7.0 0.00 0.00 0.00 32 1019.2
20180923195516 68 202 4.0 9.0 0.00 0.00 0.00 32 1019.3
20180923194517 68 212 3.0 9.0 0.00 0.00 0.00 31 1019.4
20180923193520 67 251 3.0 15.0 0.00 0.00 0.00 32 1019.4
20180923192523 67 275 3.0 12.0 0.00 0.00 0.00 33 1019.6
20180923191526 67 220 3.0 7.0 0.00 0.00 0.00 32 1019.6
20180923190529 67 234 3.0 12.0 0.00 0.00 0.00 33 1019.8
20180923185515 67 245 2.0 7.0 0.00 0.00 0.00 32 1019.6
20180923184530 66 265 2.0 7.0 0.00 0.00 0.00 31 1019.7
20180923183516 66 229 2.0 7.0 0.00 0.00 0.00 34 1019.8
20180923182519 65 266 3.0 12.0 0.00 0.00 0.00 36 1019.5
20180923181517 65 215 3.0 7.0 0.00 0.00 0.00 36 1019.8
20180923180517 64 232 3.0 9.0 0.00 0.00 0.00 38 1019.8
20180923175525 64 244 3.0 9.0 0.00 0.00 0.00 39 1019.9
20180923174523 64 247 3.0 9.0 0.00 0.00 0.00 39 1020.0
20180923173526 63 259 4.0 12.0 0.00 0.00 0.00 38 1019.8
20180923172529 63 258 1.0 4.0 0.00 0.00 0.00 42 1020.0
20180923171527 62 271 2.0 7.0 0.00 0.00 0.00 42 1020.0
20180923170649 61 252 3.0 9.0 0.00 0.00 0.00 42 1020.1
20180923165523 61 227 3.0 9.0 0.00 0.00 0.00 41 1020.0
20180923164523 60 227 1.0 4.0 0.00 0.00 0.00 44 1020.0
20180923163519 60 265 2.0 7.0 0.00 0.00 0.00 44 1019.8
20180923162521 58 261 2.0 12.0 0.00 0.00 0.00 51 1019.8
20180923161525 57 231 3.0 7.0 0.00 0.00 0.00 55 1019.6
20180923160527 56 221 2.0 7.0 0.00 0.00 0.00 59 1019.4
20180923155531 55 218 3.0 9.0 0.00 0.00 0.00 61 1019.4
20180923154531 55 246 0.0 2.0 0.00 0.00 0.00 61 1019.3
20180923153529 54 216 3.0 7.0 0.00 0.00 0.00 63 1019.2
20180923152516 53 231 0.0 4.0 0.00 0.00 0.00 64 1019.1
20180923151530 52 220 1.0 4.0 0.00 0.00 0.00 64 1018.9
20180923150531 52 235 0.0 4.0 0.00 0.00 0.00 68 1019.0
20180923145531 51 197 0.0 2.0 0.00 0.00 0.00 71 1018.8
20180923144529 51 200 3.0 7.0 0.00 0.00 0.00 72 1018.7
20180923143515 51 203 1.0 4.0 0.00 0.00 0.00 74 1018.5
20180923142530 51 219 0.0 4.0 0.00 0.00 0.00 76 1018.4
20180923141530 51 213 0.0 4.0 0.00 0.00 0.00 76 1018.2
20180923140531 51 210 3.0 12.0 0.00 0.00 0.00 76 1018.0
20180923135529 52 212 5.0 9.0 0.00 0.00 0.00 76 1018.0
20180923134515 52 209 3.0 7.0 0.00 0.00 0.00 76 1017.8
20180923133530 52 225 3.0 9.0 0.00 0.00 0.00 76 1017.7
20180923132530 52 200 2.0 4.0 0.00 0.00 0.00 78 1017.7
20180923131531 52 214 3.0 9.0 0.00 0.00 0.00 79 1017.6
20180923130529 52 199 2.0 7.0 0.00 0.00 0.00 79 1017.6
20180923125515 53 198 3.0 9.0 0.00 0.00 0.00 78 1017.4
20180923124516 53 206 4.0 9.0 0.00 0.00 0.00 76 1017.5
20180923123519 53 213 2.0 7.0 0.00 0.00 0.00 76 1017.6
20180923122522 53 235 1.0 7.0 0.00 0.00 0.00 76 1017.5
20180923121525 52 217 2.0 7.0 0.00 0.00 0.00 76 1017.6
20180923120539 52 230 3.0 7.0 0.00 0.00 0.00 75 1017.7
20180923115528 52 225 3.0 9.0 0.00 0.00 0.00 74 1017.5
20180923114527 52 210 2.0 9.0 0.00 0.00 0.00 74 1017.4
20180923113530 52 193 3.0 4.0 0.00 0.00 0.00 75 1017.4
20180923112531 53 207 0.0 9.0 0.00 0.00 0.00 76 1017.5
20180923111530 53 261 0.0 2.0 0.00 0.00 0.00 74 1017.4
20180923110527 53 215 0.0 2.0 0.00 0.00 0.00 74 1017.3
20180923105524 54 206 0.0 2.0 0.00 0.00 0.00 75 1017.0
20180923104528 54 226 0.0 2.0 0.00 0.00 0.00 75 1017.0
20180923103530 54 269 0.0 4.0 0.00 0.00 0.00 74 1017.0
20180923102517 55 266 0.0 2.0 0.00 0.00 0.00 73 1016.7
20180923101518 55 246 0.0 2.0 0.00 0.00 0.00 72 1016.5
20180923100520 55 269 1.0 4.0 0.00 0.00 0.00 73 1016.7
20180923095521 56 181 0.0 2.0 0.00 0.00 0.00 73 1016.4
20180923094524 56 208 0.0 2.0 0.00 0.00 0.00 71 1016.3
20180923093526 56 204 2.0 9.0 0.00 0.00 0.00 72 1016.0
20180923092531 56 223 2.0 7.0 0.00 0.00 0.00 72 1016.0
20180923090531 56 224 3.0 9.0 0.00 0.00 0.00 72 1016.0
20180923085529 57 259 0.0 2.0 0.00 0.00 0.00 70 1016.0
20180923084529 57 216 2.0 9.0 0.00 0.00 0.00 69 1016.0
20180923083530 57 212 3.0 9.0 0.00 0.00 0.00 70 1015.9
20180923082531 57 208 1.0 4.0 0.00 0.00 0.00 71 1015.9
20180923081517 58 219 2.0 9.0 0.00 0.00 0.00 72 1015.8
20180923080520 58 220 0.0 4.0 0.00 0.00 0.00 73 1015.7
20180923075523 59 234 0.0 4.0 0.00 0.00 0.00 72 1015.9
20180923074526 59 236 0.0 4.0 0.00 0.00 0.00 71 1015.6
20180923073529 59 212 1.0 7.0 0.00 0.00 0.00 71 1015.8
20180923072516 59 200 1.0 4.0 0.00 0.00 0.00 71 1015.5
20180923071518 60 227 2.0 7.0 0.00 0.00 0.00 71 1015.5
20180923070522 60 201 0.0 4.0 0.00 0.00 0.00 69 1015.5
20180923065524 61 217 1.0 4.0 0.00 0.00 0.00 67 1015.4
20180923064525 61 253 1.0 4.0 0.00 0.00 0.00 65 1015.6
20180923063528 61 265 1.0 9.0 0.00 0.00 0.00 65 1015.4
20180923062531 61 229 1.0 4.0 0.00 0.00 0.00 65 1015.4
20180923061529 61 249 1.0 4.0 0.00 0.00 0.00 65 1015.2
20180923060527 62 246 1.0 7.0 0.00 0.00 0.00 65 1015.3
20180923055525 62 215 3.0 9.0 0.00 0.00 0.00 64 1015.4
20180923054523 63 205 1.0 4.0 0.00 0.00 0.00 59 1015.3
20180923053520 63 198 2.0 12.0 0.00 0.00 0.00 59 1015.3
20180923052524 63 208 3.0 9.0 0.00 0.00 0.00 57 1015.3